sensor_id;sensor_type;location;lat;lon;timestamp;P1;durP1;ratioP1;P2;durP2;ratioP2
17915;SDS011;9083;49.156;8.982;2023-03-12T00:00:30;3.47;;;3.17;;
17915;SDS011;9083;49.156;8.982;2023-03-12T00:02:56;5.27;;;3.77;;
17915;SDS011;9083;49.156;8.982;2023-03-12T00:05:23;4.57;;;3.97;;
17915;SDS011;9083;49.156;8.982;2023-03-12T00:07:50;5.97;;;3.90;;
17915;SDS011;9083;49.156;8.982;2023-03-12T00:10:16;4.07;;;3.73;;
17915;SDS011;9083;49.156;8.982;2023-03-12T00:12:44;4.07;;;3.43;;
17915;SDS011;9083;49.156;8.982;2023-03-12T00:15:10;4.57;;;3.47;;
17915;SDS011;9083;49.156;8.982;2023-03-12T00:17:37;8.20;;;3.87;;
17915;SDS011;9083;49.156;8.982;2023-03-12T00:20:04;4.07;;;3.70;;
17915;SDS011;9083;49.156;8.982;2023-03-12T00:22:31;4.30;;;4.00;;
17915;SDS011;9083;49.156;8.982;2023-03-12T00:24:57;7.33;;;4.17;;
17915;SDS011;9083;49.156;8.982;2023-03-12T00:27:24;3.77;;;3.43;;
17915;SDS011;9083;49.156;8.982;2023-03-12T00:29:52;10.93;;;5.37;;
17915;SDS011;9083;49.156;8.982;2023-03-12T00:32:18;7.60;;;4.60;;
17915;SDS011;9083;49.156;8.982;2023-03-12T00:34:49;9.20;;;4.00;;
17915;SDS011;9083;49.156;8.982;2023-03-12T00:37:18;5.37;;;4.20;;
17915;SDS011;9083;49.156;8.982;2023-03-12T00:39:45;4.53;;;3.97;;
17915;SDS011;9083;49.156;8.982;2023-03-12T00:42:11;4.03;;;3.73;;
17915;SDS011;9083;49.156;8.982;2023-03-12T00:44:38;3.97;;;2.97;;
17915;SDS011;9083;49.156;8.982;2023-03-12T00:47:06;3.73;;;3.43;;
17915;SDS011;9083;49.156;8.982;2023-03-12T00:49:32;3.30;;;3.10;;
17915;SDS011;9083;49.156;8.982;2023-03-12T00:51:58;6.23;;;3.40;;
17915;SDS011;9083;49.156;8.982;2023-03-12T00:54:25;6.20;;;3.13;;
17915;SDS011;9083;49.156;8.982;2023-03-12T00:56:51;6.13;;;3.43;;
17915;SDS011;9083;49.156;8.982;2023-03-12T00:59:18;5.07;;;3.67;;
17915;SDS011;9083;49.156;8.982;2023-03-12T01:01:44;3.97;;;3.57;;
17915;SDS011;9083;49.156;8.982;2023-03-12T01:04:12;4.40;;;3.50;;
17915;SDS011;9083;49.156;8.982;2023-03-12T01:06:39;3.80;;;3.10;;
17915;SDS011;9083;49.156;8.982;2023-03-12T01:09:06;9.73;;;5.30;;
17915;SDS011;9083;49.156;8.982;2023-03-12T01:11:33;8.77;;;4.90;;
17915;SDS011;9083;49.156;8.982;2023-03-12T01:14:00;9.97;;;4.87;;
17915;SDS011;9083;49.156;8.982;2023-03-12T01:16:27;8.47;;;3.93;;
17915;SDS011;9083;49.156;8.982;2023-03-12T01:18:54;13.20;;;5.67;;
17915;SDS011;9083;49.156;8.982;2023-03-12T01:21:22;6.77;;;4.50;;
17915;SDS011;9083;49.156;8.982;2023-03-12T01:23:48;8.13;;;4.90;;
17915;SDS011;9083;49.156;8.982;2023-03-12T01:26:15;10.07;;;4.27;;
17915;SDS011;9083;49.156;8.982;2023-03-12T01:28:41;6.30;;;4.23;;
17915;SDS011;9083;49.156;8.982;2023-03-12T01:31:08;6.70;;;2.90;;
17915;SDS011;9083;49.156;8.982;2023-03-12T01:33:34;9.13;;;3.40;;
17915;SDS011;9083;49.156;8.982;2023-03-12T01:36:01;5.40;;;3.90;;
17915;SDS011;9083;49.156;8.982;2023-03-12T01:38:29;3.83;;;3.53;;
17915;SDS011;9083;49.156;8.982;2023-03-12T01:40:55;4.93;;;4.03;;
17915;SDS011;9083;49.156;8.982;2023-03-12T01:43:26;7.70;;;4.00;;
17915;SDS011;9083;49.156;8.982;2023-03-12T01:48:47;4.30;;;3.90;;
17915;SDS011;9083;49.156;8.982;2023-03-12T01:51:15;4.90;;;4.17;;
17915;SDS011;9083;49.156;8.982;2023-03-12T01:53:44;8.10;;;4.30;;
17915;SDS011;9083;49.156;8.982;2023-03-12T01:56:11;6.63;;;4.60;;
17915;SDS011;9083;49.156;8.982;2023-03-12T01:58:39;6.20;;;4.03;;
17915;SDS011;9083;49.156;8.982;2023-03-12T02:01:08;4.80;;;4.20;;
17915;SDS011;9083;49.156;8.982;2023-03-12T02:03:34;6.40;;;4.30;;
17915;SDS011;9083;49.156;8.982;2023-03-12T02:06:01;9.37;;;5.00;;
17915;SDS011;9083;49.156;8.982;2023-03-12T02:08:31;5.33;;;4.47;;
17915;SDS011;9083;49.156;8.982;2023-03-12T02:11:02;7.37;;;4.57;;
17915;SDS011;9083;49.156;8.982;2023-03-12T02:13:28;7.43;;;4.47;;
17915;SDS011;9083;49.156;8.982;2023-03-12T02:15:54;6.33;;;4.37;;
17915;SDS011;9083;49.156;8.982;2023-03-12T02:18:21;12.13;;;5.40;;
17915;SDS011;9083;49.156;8.982;2023-03-12T02:20:48;8.00;;;5.33;;
17915;SDS011;9083;49.156;8.982;2023-03-12T02:23:20;13.73;;;6.10;;
17915;SDS011;9083;49.156;8.982;2023-03-12T02:25:50;8.33;;;4.70;;
17915;SDS011;9083;49.156;8.982;2023-03-12T02:28:18;7.90;;;4.90;;
17915;SDS011;9083;49.156;8.982;2023-03-12T02:30:46;5.97;;;4.70;;
17915;SDS011;9083;49.156;8.982;2023-03-12T02:33:13;7.47;;;5.17;;
17915;SDS011;9083;49.156;8.982;2023-03-12T02:35:40;8.17;;;5.67;;
17915;SDS011;9083;49.156;8.982;2023-03-12T02:40:49;10.70;;;5.33;;
17915;SDS011;9083;49.156;8.982;2023-03-12T02:43:17;6.87;;;4.97;;
17915;SDS011;9083;49.156;8.982;2023-03-12T02:45:45;10.63;;;5.63;;
17915;SDS011;9083;49.156;8.982;2023-03-12T02:48:11;11.27;;;6.13;;
17915;SDS011;9083;49.156;8.982;2023-03-12T02:50:38;9.00;;;5.33;;
17915;SDS011;9083;49.156;8.982;2023-03-12T02:53:04;11.00;;;5.07;;
17915;SDS011;9083;49.156;8.982;2023-03-12T02:55:31;6.60;;;5.37;;
17915;SDS011;9083;49.156;8.982;2023-03-12T02:57:58;9.37;;;6.07;;
17915;SDS011;9083;49.156;8.982;2023-03-12T03:00:25;9.40;;;5.73;;
17915;SDS011;9083;49.156;8.982;2023-03-12T03:02:51;8.30;;;5.60;;
17915;SDS011;9083;49.156;8.982;2023-03-12T03:05:17;7.33;;;6.07;;
17915;SDS011;9083;49.156;8.982;2023-03-12T03:07:45;9.13;;;6.13;;
17915;SDS011;9083;49.156;8.982;2023-03-12T03:10:12;10.53;;;6.03;;
17915;SDS011;9083;49.156;8.982;2023-03-12T03:12:39;14.67;;;6.27;;
17915;SDS011;9083;49.156;8.982;2023-03-12T03:15:08;7.80;;;6.03;;
17915;SDS011;9083;49.156;8.982;2023-03-12T03:17:34;10.77;;;6.37;;
17915;SDS011;9083;49.156;8.982;2023-03-12T03:20:01;7.60;;;6.07;;
17915;SDS011;9083;49.156;8.982;2023-03-12T03:22:31;10.13;;;6.23;;
17915;SDS011;9083;49.156;8.982;2023-03-12T03:24:57;9.80;;;5.93;;
17915;SDS011;9083;49.156;8.982;2023-03-12T03:27:24;7.53;;;5.60;;
17915;SDS011;9083;49.156;8.982;2023-03-12T03:29:50;9.90;;;6.30;;
17915;SDS011;9083;49.156;8.982;2023-03-12T03:32:18;8.30;;;5.40;;
17915;SDS011;9083;49.156;8.982;2023-03-12T03:34:45;10.17;;;5.93;;
17915;SDS011;9083;49.156;8.982;2023-03-12T03:37:11;9.20;;;6.43;;
17915;SDS011;9083;49.156;8.982;2023-03-12T03:39:37;12.00;;;7.27;;
17915;SDS011;9083;49.156;8.982;2023-03-12T03:42:04;8.20;;;6.23;;
17915;SDS011;9083;49.156;8.982;2023-03-12T03:44:30;9.50;;;6.33;;
17915;SDS011;9083;49.156;8.982;2023-03-12T03:46:57;11.47;;;6.43;;
17915;SDS011;9083;49.156;8.982;2023-03-12T03:49:24;8.07;;;6.07;;
17915;SDS011;9083;49.156;8.982;2023-03-12T03:51:51;14.23;;;6.60;;
17915;SDS011;9083;49.156;8.982;2023-03-12T03:54:17;11.73;;;6.33;;
17915;SDS011;9083;49.156;8.982;2023-03-12T03:56:44;10.90;;;6.17;;
17915;SDS011;9083;49.156;8.982;2023-03-12T03:59:11;7.70;;;6.87;;
17915;SDS011;9083;49.156;8.982;2023-03-12T04:01:38;7.63;;;6.03;;
17915;SDS011;9083;49.156;8.982;2023-03-12T04:04:04;9.60;;;6.07;;
17915;SDS011;9083;49.156;8.982;2023-03-12T04:06:32;10.00;;;6.17;;
17915;SDS011;9083;49.156;8.982;2023-03-12T04:08:59;10.53;;;6.20;;
17915;SDS011;9083;49.156;8.982;2023-03-12T04:11:25;9.90;;;6.47;;
17915;SDS011;9083;49.156;8.982;2023-03-12T04:13:51;9.20;;;6.50;;
17915;SDS011;9083;49.156;8.982;2023-03-12T04:16:18;10.50;;;6.70;;
17915;SDS011;9083;49.156;8.982;2023-03-12T04:18:44;7.20;;;5.73;;
17915;SDS011;9083;49.156;8.982;2023-03-12T04:21:11;8.67;;;6.37;;
17915;SDS011;9083;49.156;8.982;2023-03-12T04:23:39;7.87;;;6.47;;
17915;SDS011;9083;49.156;8.982;2023-03-12T04:26:06;8.53;;;6.17;;
17915;SDS011;9083;49.156;8.982;2023-03-12T04:28:32;12.93;;;7.03;;
17915;SDS011;9083;49.156;8.982;2023-03-12T04:31:00;10.53;;;6.17;;
17915;SDS011;9083;49.156;8.982;2023-03-12T04:33:27;14.70;;;6.60;;
17915;SDS011;9083;49.156;8.982;2023-03-12T04:35:54;8.57;;;6.07;;
17915;SDS011;9083;49.156;8.982;2023-03-12T04:38:20;10.00;;;6.47;;
17915;SDS011;9083;49.156;8.982;2023-03-12T04:40:57;8.13;;;5.97;;
17915;SDS011;9083;49.156;8.982;2023-03-12T04:43:23;10.20;;;6.73;;
17915;SDS011;9083;49.156;8.982;2023-03-12T04:45:50;9.87;;;6.60;;
17915;SDS011;9083;49.156;8.982;2023-03-12T04:48:16;10.93;;;5.70;;
17915;SDS011;9083;49.156;8.982;2023-03-12T04:50:42;7.20;;;6.20;;
17915;SDS011;9083;49.156;8.982;2023-03-12T04:53:09;14.13;;;6.70;;
17915;SDS011;9083;49.156;8.982;2023-03-12T04:55:35;9.93;;;6.30;;
17915;SDS011;9083;49.156;8.982;2023-03-12T04:58:03;12.40;;;6.17;;
17915;SDS011;9083;49.156;8.982;2023-03-12T05:00:29;8.70;;;6.23;;
17915;SDS011;9083;49.156;8.982;2023-03-12T05:02:56;7.03;;;5.67;;
17915;SDS011;9083;49.156;8.982;2023-03-12T05:05:23;8.30;;;6.00;;
17915;SDS011;9083;49.156;8.982;2023-03-12T05:07:49;11.97;;;5.63;;
17915;SDS011;9083;49.156;8.982;2023-03-12T05:10:15;10.20;;;6.30;;
17915;SDS011;9083;49.156;8.982;2023-03-12T05:12:42;11.17;;;6.87;;
17915;SDS011;9083;49.156;8.982;2023-03-12T05:15:10;10.60;;;6.33;;
17915;SDS011;9083;49.156;8.982;2023-03-12T05:17:36;10.87;;;6.50;;
17915;SDS011;9083;49.156;8.982;2023-03-12T05:20:03;8.27;;;6.20;;
17915;SDS011;9083;49.156;8.982;2023-03-12T05:22:30;12.50;;;7.63;;
17915;SDS011;9083;49.156;8.982;2023-03-12T05:24:56;12.93;;;6.63;;
17915;SDS011;9083;49.156;8.982;2023-03-12T05:27:23;10.33;;;6.73;;
17915;SDS011;9083;49.156;8.982;2023-03-12T05:29:50;14.23;;;6.30;;
17915;SDS011;9083;49.156;8.982;2023-03-12T05:32:17;12.00;;;5.77;;
17915;SDS011;9083;49.156;8.982;2023-03-12T05:34:44;9.63;;;6.07;;
17915;SDS011;9083;49.156;8.982;2023-03-12T05:37:10;8.27;;;6.03;;
17915;SDS011;9083;49.156;8.982;2023-03-12T05:39:37;9.77;;;5.87;;
17915;SDS011;9083;49.156;8.982;2023-03-12T05:42:03;9.70;;;6.17;;
17915;SDS011;9083;49.156;8.982;2023-03-12T05:44:30;10.70;;;5.93;;
17915;SDS011;9083;49.156;8.982;2023-03-12T05:46:58;10.17;;;5.60;;
17915;SDS011;9083;49.156;8.982;2023-03-12T05:49:26;7.90;;;5.93;;
17915;SDS011;9083;49.156;8.982;2023-03-12T05:51:53;7.70;;;5.63;;
17915;SDS011;9083;49.156;8.982;2023-03-12T05:54:19;12.13;;;7.20;;
17915;SDS011;9083;49.156;8.982;2023-03-12T05:56:45;6.30;;;5.50;;
17915;SDS011;9083;49.156;8.982;2023-03-12T05:59:12;20.40;;;7.17;;
17915;SDS011;9083;49.156;8.982;2023-03-12T06:01:38;9.90;;;6.10;;
17915;SDS011;9083;49.156;8.982;2023-03-12T06:04:05;13.83;;;6.03;;
17915;SDS011;9083;49.156;8.982;2023-03-12T06:06:33;11.17;;;6.00;;
17915;SDS011;9083;49.156;8.982;2023-03-12T06:09:00;8.17;;;6.10;;
17915;SDS011;9083;49.156;8.982;2023-03-12T06:11:28;8.37;;;6.07;;
17915;SDS011;9083;49.156;8.982;2023-03-12T06:13:54;8.53;;;6.47;;
17915;SDS011;9083;49.156;8.982;2023-03-12T06:16:22;9.43;;;6.30;;
17915;SDS011;9083;49.156;8.982;2023-03-12T06:18:51;11.20;;;6.00;;
17915;SDS011;9083;49.156;8.982;2023-03-12T06:21:19;8.17;;;5.63;;
17915;SDS011;9083;49.156;8.982;2023-03-12T06:23:47;8.67;;;6.17;;
17915;SDS011;9083;49.156;8.982;2023-03-12T06:26:14;11.57;;;6.30;;
17915;SDS011;9083;49.156;8.982;2023-03-12T06:28:40;7.40;;;5.97;;
17915;SDS011;9083;49.156;8.982;2023-03-12T06:31:07;8.23;;;6.10;;
17915;SDS011;9083;49.156;8.982;2023-03-12T06:33:33;9.70;;;6.03;;
17915;SDS011;9083;49.156;8.982;2023-03-12T06:36:01;11.13;;;6.30;;
17915;SDS011;9083;49.156;8.982;2023-03-12T06:38:27;10.17;;;6.50;;
17915;SDS011;9083;49.156;8.982;2023-03-12T06:40:56;11.40;;;6.57;;
17915;SDS011;9083;49.156;8.982;2023-03-12T06:43:23;9.63;;;7.27;;
17915;SDS011;9083;49.156;8.982;2023-03-12T06:45:49;11.67;;;7.13;;
17915;SDS011;9083;49.156;8.982;2023-03-12T06:48:16;11.60;;;6.30;;
17915;SDS011;9083;49.156;8.982;2023-03-12T06:50:42;14.07;;;6.73;;
17915;SDS011;9083;49.156;8.982;2023-03-12T06:53:08;11.67;;;6.77;;
17915;SDS011;9083;49.156;8.982;2023-03-12T06:55:35;12.90;;;6.70;;
17915;SDS011;9083;49.156;8.982;2023-03-12T06:58:03;10.47;;;6.13;;
17915;SDS011;9083;49.156;8.982;2023-03-12T07:00:29;13.20;;;6.07;;
17915;SDS011;9083;49.156;8.982;2023-03-12T07:02:56;14.90;;;6.97;;
17915;SDS011;9083;49.156;8.982;2023-03-12T07:05:22;13.73;;;7.17;;
17915;SDS011;9083;49.156;8.982;2023-03-12T07:07:49;18.37;;;8.33;;
17915;SDS011;9083;49.156;8.982;2023-03-12T07:10:16;13.77;;;7.00;;
17915;SDS011;9083;49.156;8.982;2023-03-12T07:12:43;10.77;;;6.70;;
17915;SDS011;9083;49.156;8.982;2023-03-12T07:15:11;12.70;;;6.47;;
17915;SDS011;9083;49.156;8.982;2023-03-12T07:17:38;12.67;;;7.60;;
17915;SDS011;9083;49.156;8.982;2023-03-12T07:20:07;12.10;;;6.50;;
17915;SDS011;9083;49.156;8.982;2023-03-12T07:22:34;8.27;;;6.23;;
17915;SDS011;9083;49.156;8.982;2023-03-12T07:25:00;10.40;;;7.03;;
17915;SDS011;9083;49.156;8.982;2023-03-12T07:27:27;9.03;;;7.47;;
17915;SDS011;9083;49.156;8.982;2023-03-12T07:29:53;11.90;;;7.07;;
17915;SDS011;9083;49.156;8.982;2023-03-12T07:32:21;11.63;;;7.37;;
17915;SDS011;9083;49.156;8.982;2023-03-12T07:34:47;9.77;;;6.57;;
17915;SDS011;9083;49.156;8.982;2023-03-12T07:37:14;12.93;;;6.97;;
17915;SDS011;9083;49.156;8.982;2023-03-12T07:39:40;9.53;;;5.80;;
17915;SDS011;9083;49.156;8.982;2023-03-12T07:42:07;10.93;;;6.57;;
17915;SDS011;9083;49.156;8.982;2023-03-12T07:44:34;12.17;;;7.33;;
17915;SDS011;9083;49.156;8.982;2023-03-12T07:47:00;12.13;;;6.80;;
17915;SDS011;9083;49.156;8.982;2023-03-12T07:49:28;9.97;;;6.67;;
17915;SDS011;9083;49.156;8.982;2023-03-12T07:51:55;8.83;;;5.80;;
17915;SDS011;9083;49.156;8.982;2023-03-12T07:54:21;7.30;;;5.77;;
17915;SDS011;9083;49.156;8.982;2023-03-12T07:56:52;7.80;;;5.47;;
17915;SDS011;9083;49.156;8.982;2023-03-12T07:59:19;9.87;;;5.93;;
17915;SDS011;9083;49.156;8.982;2023-03-12T08:01:46;10.70;;;6.50;;
17915;SDS011;9083;49.156;8.982;2023-03-12T08:04:12;6.40;;;5.57;;
17915;SDS011;9083;49.156;8.982;2023-03-12T08:06:40;8.70;;;5.80;;
17915;SDS011;9083;49.156;8.982;2023-03-12T08:09:07;9.77;;;6.17;;
17915;SDS011;9083;49.156;8.982;2023-03-12T08:11:33;10.10;;;5.90;;
17915;SDS011;9083;49.156;8.982;2023-03-12T08:14:00;11.43;;;6.67;;
17915;SDS011;9083;49.156;8.982;2023-03-12T08:16:27;10.03;;;6.13;;
17915;SDS011;9083;49.156;8.982;2023-03-12T08:18:54;10.57;;;6.80;;
17915;SDS011;9083;49.156;8.982;2023-03-12T08:21:20;7.87;;;5.57;;
17915;SDS011;9083;49.156;8.982;2023-03-12T08:23:48;8.20;;;6.10;;
17915;SDS011;9083;49.156;8.982;2023-03-12T08:26:14;8.63;;;6.33;;
17915;SDS011;9083;49.156;8.982;2023-03-12T08:28:41;8.87;;;6.00;;
17915;SDS011;9083;49.156;8.982;2023-03-12T08:31:07;12.33;;;7.00;;
17915;SDS011;9083;49.156;8.982;2023-03-12T08:33:34;9.63;;;6.23;;
17915;SDS011;9083;49.156;8.982;2023-03-12T08:36:01;14.47;;;7.63;;
17915;SDS011;9083;49.156;8.982;2023-03-12T08:38:27;13.57;;;6.70;;
17915;SDS011;9083;49.156;8.982;2023-03-12T08:40:56;10.47;;;6.93;;
17915;SDS011;9083;49.156;8.982;2023-03-12T08:43:22;11.50;;;7.60;;
17915;SDS011;9083;49.156;8.982;2023-03-12T08:45:51;11.87;;;7.17;;
17915;SDS011;9083;49.156;8.982;2023-03-12T08:48:18;18.97;;;7.33;;
17915;SDS011;9083;49.156;8.982;2023-03-12T08:50:44;10.03;;;7.17;;
17915;SDS011;9083;49.156;8.982;2023-03-12T08:53:11;7.63;;;6.47;;
17915;SDS011;9083;49.156;8.982;2023-03-12T08:55:37;8.70;;;6.57;;
17915;SDS011;9083;49.156;8.982;2023-03-12T08:58:05;8.40;;;6.60;;
17915;SDS011;9083;49.156;8.982;2023-03-12T09:00:31;8.13;;;5.93;;
17915;SDS011;9083;49.156;8.982;2023-03-12T09:02:58;10.17;;;6.53;;
17915;SDS011;9083;49.156;8.982;2023-03-12T09:05:25;7.67;;;6.03;;
17915;SDS011;9083;49.156;8.982;2023-03-12T09:07:54;10.93;;;6.47;;
17915;SDS011;9083;49.156;8.982;2023-03-12T09:10:20;11.13;;;6.50;;
17915;SDS011;9083;49.156;8.982;2023-03-12T09:12:46;7.70;;;6.03;;
17915;SDS011;9083;49.156;8.982;2023-03-12T09:15:14;6.30;;;5.70;;
17915;SDS011;9083;49.156;8.982;2023-03-12T09:17:41;7.83;;;6.27;;
17915;SDS011;9083;49.156;8.982;2023-03-12T09:20:08;11.23;;;6.57;;
17915;SDS011;9083;49.156;8.982;2023-03-12T09:22:38;12.40;;;6.37;;
17915;SDS011;9083;49.156;8.982;2023-03-12T09:25:04;12.50;;;7.70;;
17915;SDS011;9083;49.156;8.982;2023-03-12T09:27:34;11.47;;;7.20;;
17915;SDS011;9083;49.156;8.982;2023-03-12T09:30:00;13.47;;;6.53;;
17915;SDS011;9083;49.156;8.982;2023-03-12T09:32:31;16.43;;;8.37;;
17915;SDS011;9083;49.156;8.982;2023-03-12T09:34:58;9.47;;;6.67;;
17915;SDS011;9083;49.156;8.982;2023-03-12T09:37:24;9.10;;;7.77;;
17915;SDS011;9083;49.156;8.982;2023-03-12T09:39:51;10.23;;;6.67;;
17915;SDS011;9083;49.156;8.982;2023-03-12T09:42:20;12.40;;;7.03;;
17915;SDS011;9083;49.156;8.982;2023-03-12T09:44:51;10.70;;;6.23;;
17915;SDS011;9083;49.156;8.982;2023-03-12T09:47:22;13.83;;;7.27;;
17915;SDS011;9083;49.156;8.982;2023-03-12T09:49:52;8.27;;;6.43;;
17915;SDS011;9083;49.156;8.982;2023-03-12T09:52:21;10.57;;;7.53;;
17915;SDS011;9083;49.156;8.982;2023-03-12T09:54:51;10.63;;;7.97;;
17915;SDS011;9083;49.156;8.982;2023-03-12T09:57:20;12.07;;;6.63;;
17915;SDS011;9083;49.156;8.982;2023-03-12T09:59:48;10.47;;;6.93;;
17915;SDS011;9083;49.156;8.982;2023-03-12T10:02:23;8.73;;;6.80;;
17915;SDS011;9083;49.156;8.982;2023-03-12T10:04:52;16.83;;;7.47;;
17915;SDS011;9083;49.156;8.982;2023-03-12T10:07:24;11.30;;;7.13;;
17915;SDS011;9083;49.156;8.982;2023-03-12T10:10:02;12.03;;;7.70;;
17915;SDS011;9083;49.156;8.982;2023-03-12T10:12:33;13.87;;;8.20;;
17915;SDS011;9083;49.156;8.982;2023-03-12T10:15:09;10.87;;;7.63;;
17915;SDS011;9083;49.156;8.982;2023-03-12T10:17:41;10.17;;;7.00;;
17915;SDS011;9083;49.156;8.982;2023-03-12T10:20:21;10.63;;;7.30;;
17915;SDS011;9083;49.156;8.982;2023-03-12T10:22:51;16.33;;;8.57;;
17915;SDS011;9083;49.156;8.982;2023-03-12T10:25:22;16.07;;;8.70;;
17915;SDS011;9083;49.156;8.982;2023-03-12T10:27:51;13.10;;;7.93;;
17915;SDS011;9083;49.156;8.982;2023-03-12T10:30:19;15.60;;;9.33;;
17915;SDS011;9083;49.156;8.982;2023-03-12T10:32:48;19.77;;;8.90;;
17915;SDS011;9083;49.156;8.982;2023-03-12T10:35:16;11.87;;;9.23;;
17915;SDS011;9083;49.156;8.982;2023-03-12T10:37:44;18.63;;;9.93;;
17915;SDS011;9083;49.156;8.982;2023-03-12T10:40:12;35.73;;;19.20;;
17915;SDS011;9083;49.156;8.982;2023-03-12T10:42:39;37.87;;;19.77;;
17915;SDS011;9083;49.156;8.982;2023-03-12T10:45:12;26.87;;;16.67;;
17915;SDS011;9083;49.156;8.982;2023-03-12T10:47:41;16.93;;;10.17;;
17915;SDS011;9083;49.156;8.982;2023-03-12T10:50:10;13.83;;;8.93;;
17915;SDS011;9083;49.156;8.982;2023-03-12T10:52:38;16.77;;;10.63;;
17915;SDS011;9083;49.156;8.982;2023-03-12T10:55:11;12.80;;;8.70;;
17915;SDS011;9083;49.156;8.982;2023-03-12T10:57:39;12.10;;;9.13;;
17915;SDS011;9083;49.156;8.982;2023-03-12T11:00:06;15.00;;;9.73;;
17915;SDS011;9083;49.156;8.982;2023-03-12T11:02:37;12.00;;;9.33;;
17915;SDS011;9083;49.156;8.982;2023-03-12T11:05:17;13.53;;;8.60;;
17915;SDS011;9083;49.156;8.982;2023-03-12T11:07:44;11.63;;;8.43;;
17915;SDS011;9083;49.156;8.982;2023-03-12T11:10:16;13.90;;;9.30;;
17915;SDS011;9083;49.156;8.982;2023-03-12T11:12:57;11.97;;;8.40;;
17915;SDS011;9083;49.156;8.982;2023-03-12T11:15:24;12.10;;;8.87;;
17915;SDS011;9083;49.156;8.982;2023-03-12T11:17:52;9.67;;;7.93;;
17915;SDS011;9083;49.156;8.982;2023-03-12T11:20:38;13.43;;;9.17;;
17915;SDS011;9083;49.156;8.982;2023-03-12T11:23:12;15.80;;;8.80;;
17915;SDS011;9083;49.156;8.982;2023-03-12T11:25:40;11.50;;;8.53;;
17915;SDS011;9083;49.156;8.982;2023-03-12T11:28:06;11.87;;;9.30;;
17915;SDS011;9083;49.156;8.982;2023-03-12T11:30:38;11.70;;;8.27;;
17915;SDS011;9083;49.156;8.982;2023-03-12T11:33:05;12.40;;;8.47;;
17915;SDS011;9083;49.156;8.982;2023-03-12T11:35:37;18.57;;;9.57;;
17915;SDS011;9083;49.156;8.982;2023-03-12T11:38:09;14.77;;;9.53;;
17915;SDS011;9083;49.156;8.982;2023-03-12T11:40:46;12.10;;;8.40;;
17915;SDS011;9083;49.156;8.982;2023-03-12T11:43:27;13.57;;;9.83;;
17915;SDS011;9083;49.156;8.982;2023-03-12T11:46:04;16.40;;;10.87;;
17915;SDS011;9083;49.156;8.982;2023-03-12T11:48:33;17.70;;;11.20;;
17915;SDS011;9083;49.156;8.982;2023-03-12T11:51:08;16.17;;;11.10;;
17915;SDS011;9083;49.156;8.982;2023-03-12T11:56:24;17.03;;;10.43;;
17915;SDS011;9083;49.156;8.982;2023-03-12T11:58:54;16.13;;;9.67;;
17915;SDS011;9083;49.156;8.982;2023-03-12T12:01:27;15.30;;;9.87;;
17915;SDS011;9083;49.156;8.982;2023-03-12T12:06:39;13.00;;;8.83;;
17915;SDS011;9083;49.156;8.982;2023-03-12T12:09:11;13.80;;;9.77;;
17915;SDS011;9083;49.156;8.982;2023-03-12T12:11:48;12.37;;;9.17;;
17915;SDS011;9083;49.156;8.982;2023-03-12T12:14:19;14.30;;;10.13;;
17915;SDS011;9083;49.156;8.982;2023-03-12T12:19:41;12.43;;;9.23;;
17915;SDS011;9083;49.156;8.982;2023-03-12T12:22:18;17.30;;;9.17;;
17915;SDS011;9083;49.156;8.982;2023-03-12T12:24:51;15.77;;;9.43;;
17915;SDS011;9083;49.156;8.982;2023-03-12T12:27:23;18.47;;;9.13;;
17915;SDS011;9083;49.156;8.982;2023-03-12T12:29:54;13.37;;;9.87;;
17915;SDS011;9083;49.156;8.982;2023-03-12T12:32:28;16.20;;;8.73;;
17915;SDS011;9083;49.156;8.982;2023-03-12T12:35:02;13.97;;;8.20;;
17915;SDS011;9083;49.156;8.982;2023-03-12T12:37:39;11.70;;;6.47;;
17915;SDS011;9083;49.156;8.982;2023-03-12T12:40:09;16.27;;;9.80;;
17915;SDS011;9083;49.156;8.982;2023-03-12T12:42:44;7.80;;;6.80;;
17915;SDS011;9083;49.156;8.982;2023-03-12T12:45:12;14.17;;;7.57;;
17915;SDS011;9083;49.156;8.982;2023-03-12T12:47:41;19.67;;;8.90;;
17915;SDS011;9083;49.156;8.982;2023-03-12T12:50:12;14.27;;;7.17;;
17915;SDS011;9083;49.156;8.982;2023-03-12T12:52:40;14.63;;;6.60;;
17915;SDS011;9083;49.156;8.982;2023-03-12T12:55:10;13.20;;;8.53;;
17915;SDS011;9083;49.156;8.982;2023-03-12T12:57:40;12.60;;;7.10;;
17915;SDS011;9083;49.156;8.982;2023-03-12T13:00:12;13.10;;;6.87;;
17915;SDS011;9083;49.156;8.982;2023-03-12T13:02:40;13.80;;;7.30;;
17915;SDS011;9083;49.156;8.982;2023-03-12T13:05:16;17.30;;;9.53;;
17915;SDS011;9083;49.156;8.982;2023-03-12T13:07:43;17.37;;;8.87;;
17915;SDS011;9083;49.156;8.982;2023-03-12T13:10:36;12.67;;;5.60;;
17915;SDS011;9083;49.156;8.982;2023-03-12T13:13:03;10.90;;;5.67;;
17915;SDS011;9083;49.156;8.982;2023-03-12T13:15:37;14.30;;;6.70;;
17915;SDS011;9083;49.156;8.982;2023-03-12T13:18:06;14.03;;;8.10;;
17915;SDS011;9083;49.156;8.982;2023-03-12T13:20:36;14.27;;;8.10;;
17915;SDS011;9083;49.156;8.982;2023-03-12T13:23:17;17.70;;;8.13;;
17915;SDS011;9083;49.156;8.982;2023-03-12T13:25:52;14.10;;;7.70;;
17915;SDS011;9083;49.156;8.982;2023-03-12T13:28:32;12.80;;;4.43;;
17915;SDS011;9083;49.156;8.982;2023-03-12T13:31:01;13.57;;;5.53;;
17915;SDS011;9083;49.156;8.982;2023-03-12T13:33:38;11.90;;;5.30;;
17915;SDS011;9083;49.156;8.982;2023-03-12T13:36:10;5.60;;;3.87;;
17915;SDS011;9083;49.156;8.982;2023-03-12T13:38:37;11.67;;;6.50;;
17915;SDS011;9083;49.156;8.982;2023-03-12T13:41:05;10.37;;;6.23;;
17915;SDS011;9083;49.156;8.982;2023-03-12T13:46:25;14.90;;;6.93;;
17915;SDS011;9083;49.156;8.982;2023-03-12T13:48:52;10.67;;;5.00;;
17915;SDS011;9083;49.156;8.982;2023-03-12T13:51:23;27.10;;;7.87;;
17915;SDS011;9083;49.156;8.982;2023-03-12T13:53:51;13.40;;;5.80;;
17915;SDS011;9083;49.156;8.982;2023-03-12T13:56:19;12.43;;;4.20;;
17915;SDS011;9083;49.156;8.982;2023-03-12T13:58:47;8.37;;;3.67;;
17915;SDS011;9083;49.156;8.982;2023-03-12T14:01:14;16.53;;;6.10;;
17915;SDS011;9083;49.156;8.982;2023-03-12T14:03:44;10.00;;;3.23;;
17915;SDS011;9083;49.156;8.982;2023-03-12T14:06:12;7.60;;;4.17;;
17915;SDS011;9083;49.156;8.982;2023-03-12T14:08:46;15.10;;;5.97;;
17915;SDS011;9083;49.156;8.982;2023-03-12T14:11:20;8.00;;;3.07;;
17915;SDS011;9083;49.156;8.982;2023-03-12T14:14:03;8.00;;;3.53;;
17915;SDS011;9083;49.156;8.982;2023-03-12T14:16:33;9.37;;;3.00;;
17915;SDS011;9083;49.156;8.982;2023-03-12T14:19:05;10.20;;;3.63;;
17915;SDS011;9083;49.156;8.982;2023-03-12T14:21:33;12.00;;;5.40;;
17915;SDS011;9083;49.156;8.982;2023-03-12T14:24:00;10.33;;;4.00;;
17915;SDS011;9083;49.156;8.982;2023-03-12T14:26:27;11.73;;;3.77;;
17915;SDS011;9083;49.156;8.982;2023-03-12T14:28:56;11.03;;;4.40;;
17915;SDS011;9083;49.156;8.982;2023-03-12T14:31:24;5.43;;;3.00;;
17915;SDS011;9083;49.156;8.982;2023-03-12T14:33:53;11.43;;;3.03;;
17915;SDS011;9083;49.156;8.982;2023-03-12T14:36:22;8.37;;;3.20;;
17915;SDS011;9083;49.156;8.982;2023-03-12T14:38:57;17.17;;;3.57;;
17915;SDS011;9083;49.156;8.982;2023-03-12T14:41:24;10.63;;;3.67;;
17915;SDS011;9083;49.156;8.982;2023-03-12T14:43:53;9.47;;;3.23;;
17915;SDS011;9083;49.156;8.982;2023-03-12T14:46:20;13.63;;;3.23;;
17915;SDS011;9083;49.156;8.982;2023-03-12T14:48:48;15.10;;;3.57;;
17915;SDS011;9083;49.156;8.982;2023-03-12T14:51:17;7.90;;;2.67;;
17915;SDS011;9083;49.156;8.982;2023-03-12T14:53:45;10.30;;;3.33;;
17915;SDS011;9083;49.156;8.982;2023-03-12T14:56:13;23.97;;;5.20;;
17915;SDS011;9083;49.156;8.982;2023-03-12T14:58:41;15.43;;;3.67;;
17915;SDS011;9083;49.156;8.982;2023-03-12T15:01:10;10.37;;;3.77;;
17915;SDS011;9083;49.156;8.982;2023-03-12T15:03:39;12.40;;;3.13;;
17915;SDS011;9083;49.156;8.982;2023-03-12T15:06:11;10.90;;;2.27;;
17915;SDS011;9083;49.156;8.982;2023-03-12T15:08:38;11.53;;;3.30;;
17915;SDS011;9083;49.156;8.982;2023-03-12T15:11:06;7.73;;;2.73;;
17915;SDS011;9083;49.156;8.982;2023-03-12T15:13:33;9.43;;;3.13;;
17915;SDS011;9083;49.156;8.982;2023-03-12T15:16:04;8.97;;;2.63;;